Time;durP1;ratioP1;P1;durP2;ratioP2;P2;SDS_P1;SDS_P2;PMS_P1;PMS_P2;Temp;Humidity;BMP_temperature;BMP_pressure;BME280_temperature;BME280_humidity;BME280_pressure;Samples;Min_cycle;Max_cycle;Signal;HPM_P1;HPM_P2
2022/01/22 00:02:08;;;;;;;;;;;;;;;3.86;97.55;101603.19;4941088;29;1057;-86
2022/01/22 00:04:33;;;;;;;;;;;;;;;3.85;97.33;101591.50;4958379;29;1910;-87
2022/01/22 00:07:01;;;;;;;;;;;;;;;3.86;97.61;101622.97;4941096;28;1229;-86
2022/01/22 00:09:28;;;;;;;;;;;;;;;3.89;97.29;101600.91;4941217;29;1254;-87
2022/01/22 00:11:54;;;;;;;;;;;;;;;3.85;97.47;101602.34;4958081;29;998;-87
2022/01/22 00:14:23;;;;;;;;;;;;;;;3.84;97.49;101606.09;4944717;28;1428;-87
2022/01/22 00:16:48;;;;;;;;;;;;;;;3.84;97.64;101589.84;4960240;28;1232;-87
2022/01/22 00:19:13;;;;;;;;;;;;;;;3.85;97.49;101596.94;4960180;28;1288;-87
2022/01/22 00:21:38;;;;;;;;;;;;;;;3.85;97.44;101596.09;4959978;28;1206;-86
2022/01/22 00:24:04;;;;;;;;;;;;;;;3.86;97.79;101606.72;4959907;28;1957;-87
2022/01/22 00:26:29;;;;;;;;;;;;;;;3.85;97.63;101593.38;4977582;28;937;-86
2022/01/22 00:28:54;;;;;;;;;;;;;;;3.85;97.65;101598.78;4960123;28;1246;-86
2022/01/22 00:31:19;;;;;;;;;;;;;;;3.85;97.65;101591.50;4959739;28;1305;-87
2022/01/22 00:33:45;;;;;;;;;;;;;;;3.85;97.73;101601.50;4959884;28;1274;-86
2022/01/22 00:36:10;;;;;;;;;;;;;;;3.87;97.70;101599.44;4960060;28;1356;-87
2022/01/22 00:38:35;;;;;;;;;;;;;;;3.86;97.61;101598.59;4959669;28;1206;-88
2022/01/22 00:41:00;;;;;;;;;;;;;;;3.85;97.71;101596.94;4959883;28;1321;-88
2022/01/22 00:43:27;;;;;;;;;;;;;;;3.83;97.75;101601.72;4959374;28;1312;-88
2022/01/22 00:45:52;;;;;;;;;;;;;;;3.84;97.99;101595.25;4959500;28;1952;-87
2022/01/22 00:48:17;;;;;;;;;;;;;;;3.87;97.73;101596.72;4959517;28;1237;-85
2022/01/22 00:50:43;;;;;;;;;;;;;;;3.88;97.75;101592.97;4959795;28;928;-86
2022/01/22 00:53:08;;;;;;;;;;;;;;;3.89;97.95;101597.34;4959566;28;1367;-86
2022/01/22 00:55:34;;;;;;;;;;;;;;;3.90;97.88;101594.44;4976987;28;1014;-87
2022/01/22 00:57:59;;;;;;;;;;;;;;;3.92;97.65;101607.75;4959382;28;1298;-87
2022/01/22 01:00:24;;;;;;;;;;;;;;;3.91;97.82;101597.97;4975624;28;1473;-85
2022/01/22 01:02:49;;;;;;;;;;;;;;;3.89;97.75;101595.47;4959321;28;975;-86
2022/01/22 01:05:14;;;;;;;;;;;;;;;3.91;97.71;101620.47;4959617;28;1976;-87
2022/01/22 01:07:40;;;;;;;;;;;;;;;3.94;97.72;101600.25;4954090;28;1458;-86
2022/01/22 01:10:07;;;;;;;;;;;;;;;3.90;97.82;101599.84;4958532;28;1297;-86
2022/01/22 01:12:32;;;;;;;;;;;;;;;3.91;97.73;101589.84;4959528;28;1301;-86
2022/01/22 01:15:18;;;;;;;;;;;;;;;3.90;97.64;101586.31;4959205;28;1521;-86
2022/01/22 01:32:11;;;;;;;;;;;;;;;3.89;97.96;101597.34;4958884;29;599;-86
2022/01/22 01:34:14;;;;;;;;;;;;;;;3.92;97.89;101597.75;4956906;29;1087;-87
2022/01/22 01:36:40;;;;;;;;;;;;;;;3.91;97.85;101596.09;4966030;28;1221;-87
2022/01/22 01:39:09;;;;;;;;;;;;;;;3.91;97.97;101600.69;4959026;28;1452;-87
2022/01/22 01:41:45;;;;;;;;;;;;;;;3.91;97.95;101604.22;4958817;28;1423;-86
2022/01/22 01:44:10;;;;;;;;;;;;;;;3.92;97.96;101600.47;4959202;28;1906;-87
2022/01/22 01:46:42;;;;;;;;;;;;;;;3.90;98.20;101607.16;4958962;28;1229;-86
2022/01/22 01:49:07;;;;;;;;;;;;;;;3.93;98.11;101596.72;4970841;28;1454;-87
2022/01/22 01:51:33;;;;;;;;;;;;;;;3.94;97.65;101594.84;4939301;29;1128;-87
2022/01/22 01:54:11;;;;;;;;;;;;;;;3.94;98.12;101603.78;4924333;29;1156;-86
2022/01/22 01:59:20;;;;;;;;;;;;;;;3.95;98.13;101601.91;4976239;28;1370;-86
2022/01/22 02:01:45;;;;;;;;;;;;;;;3.95;98.25;101621.72;4944363;29;1317;-86
2022/01/22 02:04:12;;;;;;;;;;;;;;;3.96;98.02;101626.09;4943906;28;1906;-86
2022/01/22 02:06:39;;;;;;;;;;;;;;;3.95;98.17;101610.88;4958083;28;1398;-86
2022/01/22 02:09:07;;;;;;;;;;;;;;;3.98;97.98;101618.59;4958392;28;1425;-86
2022/01/22 02:11:33;;;;;;;;;;;;;;;4.02;98.00;101621.72;4958025;28;1275;-86
2022/01/22 02:24:43;;;;;;;;;;;;;;;4.06;97.94;101617.53;4956169;29;1982;-86
2022/01/22 02:27:08;;;;;;;;;;;;;;;4.05;97.94;101627.53;4939191;28;1298;-86
2022/01/22 02:29:34;;;;;;;;;;;;;;;4.07;97.93;101621.94;4938684;29;1110;-86
2022/01/22 02:32:29;;;;;;;;;;;;;;;4.06;97.92;101621.09;4938896;29;1229;-87
2022/01/22 02:34:52;;;;;;;;;;;;;;;4.04;98.08;101617.75;4962112;28;1488;-86
2022/01/22 02:37:20;;;;;;;;;;;;;;;4.05;98.09;101613.16;4974937;28;1481;-87
2022/01/22 02:39:59;;;;;;;;;;;;;;;4.03;98.05;101599.81;4958156;28;1237;-86
2022/01/22 02:42:29;;;;;;;;;;;;;;;4.06;97.95;101609.41;4957751;28;1225;-86
2022/01/22 02:44:54;;;;;;;;;;;;;;;4.06;97.81;101612.97;4957672;28;1898;-86
2022/01/22 02:47:20;;;;;;;;;;;;;;;4.07;98.17;101614.63;4957622;28;1194;-87
2022/01/22 02:49:45;;;;;;;;;;;;;;;4.11;97.66;101617.72;4957610;28;1304;-86
2022/01/22 02:52:11;;;;;;;;;;;;;;;4.10;98.18;101619.59;4955446;28;1218;-86
2022/01/22 02:54:37;;;;;;;;;;;;;;;4.09;98.04;101604.41;4957863;28;1188;-86
2022/01/22 02:57:03;;;;;;;;;;;;;;;4.09;98.10;101617.94;4957629;28;1414;-86
2022/01/22 02:59:28;;;;;;;;;;;;;;;4.09;97.99;101617.94;4957778;28;1312;-85
2022/01/22 03:01:54;;;;;;;;;;;;;;;4.08;98.21;101620.88;4957585;28;1315;-85
2022/01/22 03:04:19;;;;;;;;;;;;;;;4.09;97.98;101623.34;4964460;28;1910;-86
2022/01/22 03:06:46;;;;;;;;;;;;;;;4.07;97.63;101628.19;4969839;28;1549;-85
2022/01/22 03:09:13;;;;;;;;;;;;;;;4.07;98.12;101620.06;4964886;28;1580;-86
2022/01/22 03:11:57;;;;;;;;;;;;;;;4.08;98.19;101616.28;4976868;28;875;-86
2022/01/22 03:16:57;;;;;;;;;;;;;;;4.11;97.96;101628.56;4959235;28;1008;-85
2022/01/22 03:22:29;;;;;;;;;;;;;;;4.10;98.39;101627.75;4951737;29;1485;-86
2022/01/22 03:27:58;;;;;;;;;;;;;;;4.11;98.26;101625.88;4934081;29;1226;-86
2022/01/22 03:30:24;;;;;;;;;;;;;;;4.12;98.11;101635.66;4933918;29;1519;-87
2022/01/22 03:32:52;;;;;;;;;;;;;;;4.13;97.97;101634.63;4944059;28;918;-85
2022/01/22 03:37:43;;;;;;;;;;;;;;;4.15;97.93;101640.66;4998986;23;1858;-87
2022/01/22 03:40:10;;;;;;;;;;;;;;;4.16;98.33;101645.88;4999850;28;1344;-87
2022/01/22 03:42:36;;;;;;;;;;;;;;;4.19;97.70;101647.31;4999632;28;1289;-87
2022/01/22 03:45:03;;;;;;;;;;;;;;;4.18;98.32;101651.91;4999670;28;1969;-87
2022/01/22 03:47:28;;;;;;;;;;;;;;;4.18;97.97;101646.47;4995565;28;1280;-86
2022/01/22 03:49:53;;;;;;;;;;;;;;;4.19;98.19;101647.31;4973523;28;1415;-86
2022/01/22 03:52:18;;;;;;;;;;;;;;;4.21;98.26;101655.25;4964546;28;1509;-86
2022/01/22 03:54:43;;;;;;;;;;;;;;;4.22;98.19;101656.91;4994519;28;1437;-86
2022/01/22 03:57:09;;;;;;;;;;;;;;;4.19;98.09;101656.28;4961345;28;1458;-86
2022/01/22 03:59:34;;;;;;;;;;;;;;;4.22;98.08;101651.50;4960833;28;1136;-87
2022/01/22 04:04:33;;;;;;;;;;;;;;;4.23;98.29;101651.28;4997631;28;1898;-86
2022/01/22 04:09:45;;;;;;;;;;;;;;;4.25;98.12;101651.91;4977954;28;906;-87
2022/01/22 04:12:12;;;;;;;;;;;;;;;4.26;98.49;101658.97;4976386;28;1335;-87
2022/01/22 04:14:45;;;;;;;;;;;;;;;4.27;98.20;101649.81;4960520;28;1213;-86
2022/01/22 04:17:24;;;;;;;;;;;;;;;4.28;98.43;101664.19;4976683;28;1525;-85
2022/01/22 04:25:22;;;;;;;;;;;;;;;4.28;97.80;101666.91;4981740;28;1914;-86
2022/01/22 04:27:48;;;;;;;;;;;;;;;4.30;98.18;101659.41;4977586;28;1326;-87
2022/01/22 04:30:13;;;;;;;;;;;;;;;4.30;98.15;101665.66;4960148;28;1233;-87
2022/01/22 04:32:38;;;;;;;;;;;;;;;4.33;97.94;101664.41;4960130;28;1190;-86
2022/01/22 04:35:04;;;;;;;;;;;;;;;4.33;98.01;101669.84;4960326;28;1228;-87
2022/01/22 04:37:29;;;;;;;;;;;;;;;4.34;97.96;101671.50;4960115;28;1297;-87
2022/01/22 04:39:54;;;;;;;;;;;;;;;4.35;98.38;101667.72;4972933;28;1609;-87
2022/01/22 04:42:20;;;;;;;;;;;;;;;4.34;97.94;101669.59;4979232;28;1372;-87
2022/01/22 04:44:57;;;;;;;;;;;;;;;4.35;97.93;101670.44;4978333;28;1981;-86
2022/01/22 04:48:10;;;;;;;;;;;;;;;4.34;98.17;101666.88;4979203;28;1280;-86
2022/01/22 04:55:39;;;;;;;;;;;;;;;4.36;97.99;101669.41;4977222;28;997;-87
2022/01/22 04:58:05;;;;;;;;;;;;;;;4.38;97.82;101670.03;4959752;28;1234;-86
2022/01/22 05:00:34;;;;;;;;;;;;;;;4.37;98.05;101654.81;4959587;28;1229;-85
2022/01/22 05:03:03;;;;;;;;;;;;;;;4.36;98.36;101663.97;4962784;28;1517;-86
2022/01/22 05:05:29;;;;;;;;;;;;;;;4.39;97.81;101663.56;4978694;28;1898;-87
2022/01/22 05:07:54;;;;;;;;;;;;;;;4.42;98.07;101665.84;4979390;28;1375;-86
2022/01/22 05:10:23;;;;;;;;;;;;;;;4.41;98.29;101667.75;4966000;28;1328;-87
2022/01/22 05:12:49;;;;;;;;;;;;;;;4.42;98.10;101666.66;4963335;28;1546;-86
2022/01/22 05:15:16;;;;;;;;;;;;;;;4.42;98.48;101663.16;4959192;28;1241;-87
2022/01/22 05:17:43;;;;;;;;;;;;;;;4.43;98.14;101665.63;4959314;28;1245;-86
2022/01/22 05:20:17;;;;;;;;;;;;;;;4.43;98.33;101671.03;4959303;28;1213;-86
2022/01/22 05:25:18;;;;;;;;;;;;;;;4.47;98.52;101682.31;4976623;28;1898;-86
2022/01/22 05:29:04;;;;;;;;;;;;;;;4.47;97.88;101687.72;4959187;28;1246;-85
2022/01/22 05:30:55;;;;;;;;;;;;;;;4.48;98.40;101686.69;4959113;28;1230;-86
2022/01/22 05:38:48;;;;;;;;;;;;;;;4.48;98.12;101695.66;4990904;28;1328;-87
2022/01/22 05:41:13;;;;;;;;;;;;;;;4.48;98.02;101695.66;4978063;28;1667;-86
2022/01/22 05:43:39;;;;;;;;;;;;;;;4.50;97.88;101698.16;4978233;28;1302;-86
2022/01/22 05:46:04;;;;;;;;;;;;;;;4.49;98.28;101701.91;4978038;28;1902;-86
2022/01/22 05:48:29;;;;;;;;;;;;;;;4.50;97.90;101699.00;5012048;23;1971;-86
2022/01/22 05:50:59;;;;;;;;;;;;;;;4.52;98.44;101698.75;4989305;28;1213;-87
2022/01/22 06:01:05;;;;;;;;;;;;;;;4.53;98.15;101698.56;4998216;28;621;-88
2022/01/22 06:03:30;;;;;;;;;;;;;;;4.53;98.34;101703.97;4975323;28;1446;-88
2022/01/22 06:05:55;;;;;;;;;;;;;;;4.54;98.48;101705.66;4979588;28;1975;-88
2022/01/22 06:08:21;;;;;;;;;;;;;;;4.57;98.06;101710.66;4977262;28;1595;-89
2022/01/22 06:10:53;;;;;;;;;;;;;;;4.59;98.28;101713.16;4981571;28;1635;-87
2022/01/22 06:13:20;;;;;;;;;;;;;;;4.57;98.25;101718.81;4991165;28;1422;-88
2022/01/22 06:15:45;;;;;;;;;;;;;;;4.59;98.14;101715.88;4964809;28;1529;-89
2022/01/22 06:18:11;;;;;;;;;;;;;;;4.61;98.46;101719.19;4960324;28;1285;-87
2022/01/22 06:20:36;;;;;;;;;;;;;;;4.63;98.57;101711.69;4961964;28;1465;-89
2022/01/22 06:23:01;;;;;;;;;;;;;;;4.61;97.95;101715.66;4959917;28;1146;-88
2022/01/22 06:25:26;;;;;;;;;;;;;;;4.62;98.54;101725.44;4960609;28;1968;-89
2022/01/22 06:27:52;;;;;;;;;;;;;;;4.62;98.24;101728.16;4984194;28;1497;-86
2022/01/22 06:30:17;;;;;;;;;;;;;;;4.64;98.12;101731.50;4998381;28;1552;-86
2022/01/22 06:32:42;;;;;;;;;;;;;;;4.64;98.49;101724.19;4998614;28;974;-88
2022/01/22 06:35:07;;;;;;;;;;;;;;;4.66;98.44;101729.41;4980604;28;1407;-88
2022/01/22 06:37:33;;;;;;;;;;;;;;;4.67;98.13;101737.34;4979696;28;1552;-88
2022/01/22 06:41:44;;;;;;;;;;;;;;;4.68;98.46;101736.28;4980274;28;1521;-88
2022/01/22 06:42:46;;;;;;;;;;;;;;;4.71;97.97;101737.75;4997097;28;1179;-88
2022/01/22 06:45:11;;;;;;;;;;;;;;;4.73;98.16;101754.66;4977791;28;1886;-89
2022/01/22 06:47:37;;;;;;;;;;;;;;;4.75;97.88;101752.56;4962156;28;1253;-88
2022/01/22 06:50:03;;;;;;;;;;;;;;;4.73;97.81;101750.06;4980200;28;1021;-89
2022/01/22 06:52:29;;;;;;;;;;;;;;;4.74;97.81;101749.00;4973325;28;1419;-88
2022/01/22 06:54:55;;;;;;;;;;;;;;;4.73;97.87;101751.94;4981827;28;1647;-89
2022/01/22 06:57:20;;;;;;;;;;;;;;;4.73;98.37;101751.94;4982035;28;1448;-86
2022/01/22 06:59:45;;;;;;;;;;;;;;;4.71;98.46;101749.44;4980391;28;1213;-89
2022/01/22 07:02:10;;;;;;;;;;;;;;;4.71;98.06;101763.00;4962077;28;1182;-89
2022/01/22 07:04:37;;;;;;;;;;;;;;;4.74;98.54;101759.88;4962648;28;1906;-89
2022/01/22 07:07:04;;;;;;;;;;;;;;;4.74;98.25;101753.59;4962353;28;1371;-87
2022/01/22 07:09:29;;;;;;;;;;;;;;;4.74;98.38;101762.56;4986102;28;1627;-88
2022/01/22 07:11:54;;;;;;;;;;;;;;;4.75;98.21;101764.25;4986779;28;1077;-88
2022/01/22 07:14:19;;;;;;;;;;;;;;;4.75;98.60;101763.41;4988146;28;1604;-88
2022/01/22 07:16:44;;;;;;;;;;;;;;;4.76;97.94;101763.22;5006605;28;1493;-89
2022/01/22 07:19:10;;;;;;;;;;;;;;;4.73;97.91;101755.47;4990282;28;1322;-89
2022/01/22 07:21:37;;;;;;;;;;;;;;;4.75;98.20;101760.69;4974874;28;1624;-89
2022/01/22 07:26:28;;;;;;;;;;;;;;;4.80;97.96;101769.84;4998168;28;1242;-89
2022/01/22 07:28:53;;;;;;;;;;;;;;;4.80;98.25;101771.75;4982043;28;1494;-88
2022/01/22 07:31:20;;;;;;;;;;;;;;;4.81;98.33;101784.25;5006972;28;820;-87
2022/01/22 07:33:46;;;;;;;;;;;;;;;4.82;98.62;101788.63;4980914;28;1536;-89
2022/01/22 07:36:11;;;;;;;;;;;;;;;4.80;98.05;101790.72;5007491;28;1496;-88
2022/01/22 07:38:38;;;;;;;;;;;;;;;4.81;98.12;101789.69;4985932;28;1493;-89
2022/01/22 07:41:03;;;;;;;;;;;;;;;4.81;98.46;101786.97;5011047;28;890;-88
2022/01/22 07:43:28;;;;;;;;;;;;;;;4.80;98.24;101782.59;5007951;28;1556;-87
2022/01/22 07:45:53;;;;;;;;;;;;;;;4.81;98.38;101798.66;4985495;28;1906;-88
2022/01/22 07:48:19;;;;;;;;;;;;;;;4.82;98.00;101794.06;4988689;28;1490;-87
2022/01/22 07:50:44;;;;;;;;;;;;;;;4.81;98.02;101793.22;4977395;28;1434;-87
2022/01/22 07:53:09;;;;;;;;;;;;;;;4.82;98.71;101791.34;4982970;28;1342;-86
2022/01/22 07:55:34;;;;;;;;;;;;;;;4.82;98.05;101802.19;4981270;28;1009;-87
2022/01/22 07:57:59;;;;;;;;;;;;;;;4.85;98.26;101805.31;4977940;28;1717;-87
2022/01/22 08:00:24;;;;;;;;;;;;;;;4.83;98.74;101804.72;4983215;28;1073;-87
2022/01/22 08:02:49;;;;;;;;;;;;;;;4.86;98.53;101796.13;4979740;28;1344;-87
2022/01/22 08:05:15;;;;;;;;;;;;;;;4.86;98.22;101817.84;4963641;28;1969;-88
2022/01/22 08:07:44;;;;;;;;;;;;;;;4.86;98.55;101817.84;4964108;28;1222;-87
2022/01/22 08:10:10;;;;;;;;;;;;;;;4.86;98.45;101809.69;4963642;28;1569;-87
2022/01/22 08:12:37;;;;;;;;;;;;;;;4.89;98.79;101809.28;4981209;28;850;-87
2022/01/22 08:15:02;;;;;;;;;;;;;;;4.89;98.05;101803.84;4972941;28;1463;-87
2022/01/22 08:17:27;;;;;;;;;;;;;;;4.88;98.33;101801.34;4974355;28;1571;-89
2022/01/22 08:19:53;;;;;;;;;;;;;;;4.89;98.55;101806.56;4961225;28;1242;-87
2022/01/22 08:22:19;;;;;;;;;;;;;;;4.90;98.19;101807.41;4986527;28;1699;-88
2022/01/22 08:24:44;;;;;;;;;;;;;;;4.90;98.78;101804.69;4979494;28;1895;-86
2022/01/22 08:27:16;;;;;;;;;;;;;;;4.90;98.55;101807.41;4979754;28;1225;-88
2022/01/22 08:29:41;;;;;;;;;;;;;;;4.92;98.34;101800.72;4980105;28;1384;-86
2022/01/22 08:37:20;;;;;;;;;;;;;;;4.94;98.03;101806.75;4990407;28;1500;-85
2022/01/22 08:39:45;;;;;;;;;;;;;;;4.94;98.28;101803.22;4973938;28;1278;-87
2022/01/22 08:42:10;;;;;;;;;;;;;;;4.95;98.43;101799.47;4979904;28;1248;-85
2022/01/22 08:44:36;;;;;;;;;;;;;;;4.95;98.29;101800.28;4980198;28;1890;-84
2022/01/22 08:47:01;;;;;;;;;;;;;;;4.95;98.65;101799.47;4972911;28;1391;-87
2022/01/22 08:49:26;;;;;;;;;;;;;;;4.95;98.37;101803.00;4984719;28;1337;-87
2022/01/22 08:51:52;;;;;;;;;;;;;;;4.97;98.31;101807.38;4979827;28;1365;-88
2022/01/22 08:54:17;;;;;;;;;;;;;;;4.95;98.80;101803.00;4963920;28;1324;-87
2022/01/22 08:56:42;;;;;;;;;;;;;;;4.95;98.31;101811.16;4991195;28;1207;-87
2022/01/22 08:59:08;;;;;;;;;;;;;;;4.95;98.65;101811.16;4997376;28;1316;-87
2022/01/22 09:01:33;;;;;;;;;;;;;;;4.95;98.13;101822.00;4979148;28;1281;-87
2022/01/22 09:03:59;;;;;;;;;;;;;;;4.94;98.15;101828.47;4978799;28;1950;-86
2022/01/22 09:06:24;;;;;;;;;;;;;;;4.91;98.81;101828.06;4980076;28;1205;-87
2022/01/22 09:08:59;;;;;;;;;;;;;;;4.91;98.53;101828.91;4982860;28;1552;-87
2022/01/22 09:11:24;;;;;;;;;;;;;;;4.92;98.58;101832.47;4978049;28;1277;-88
2022/01/22 09:13:49;;;;;;;;;;;;;;;4.91;98.24;101839.75;4993147;28;1257;-88
2022/01/22 09:16:14;;;;;;;;;;;;;;;4.93;98.74;101834.94;4963361;28;1564;-87
2022/01/22 09:18:39;;;;;;;;;;;;;;;4.94;98.70;101835.78;4978796;28;1233;-88
2022/01/22 09:21:04;;;;;;;;;;;;;;;4.93;98.94;101834.13;4979238;28;1561;-88
2022/01/22 09:23:30;;;;;;;;;;;;;;;4.92;98.37;101859.59;4979366;28;1355;-87
2022/01/22 09:25:56;;;;;;;;;;;;;;;4.94;98.85;101846.63;4972997;28;1962;-90
2022/01/22 09:28:21;;;;;;;;;;;;;;;4.96;99.23;101860.81;4976522;28;1541;-88
2022/01/22 09:30:47;;;;;;;;;;;;;;;4.95;99.07;101861.88;4978386;28;1340;-87
2022/01/22 09:33:12;;;;;;;;;;;;;;;4.95;98.52;101854.56;4996514;28;1335;-85
2022/01/22 09:35:38;;;;;;;;;;;;;;;4.98;99.08;101866.88;4976392;28;1325;-86
2022/01/22 09:38:03;;;;;;;;;;;;;;;4.99;98.71;101860.41;4962829;28;1359;-87
2022/01/22 09:40:29;;;;;;;;;;;;;;;5.00;98.39;101861.25;4980555;28;1555;-87
2022/01/22 09:42:55;;;;;;;;;;;;;;;5.03;98.90;101864.34;4966766;28;1268;-87
2022/01/22 09:45:22;;;;;;;;;;;;;;;5.07;98.79;101872.94;4979240;28;1970;-87
2022/01/22 09:47:48;;;;;;;;;;;;;;;5.13;98.28;101872.06;4991316;28;1368;-89
2022/01/22 09:50:13;;;;;;;;;;;;;;;5.15;98.08;101878.97;4979133;28;1524;-87
2022/01/22 09:52:39;;;;;;;;;;;;;;;5.18;98.41;101883.16;4978603;28;1600;-87
2022/01/22 09:55:04;;;;;;;;;;;;;;;5.23;98.48;101878.75;4979327;28;1434;-87
2022/01/22 09:57:29;;;;;;;;;;;;;;;5.26;97.88;101882.91;4974625;28;1363;-87
2022/01/22 09:59:54;;;;;;;;;;;;;;;5.29;97.96;101885.19;4997364;28;792;-88
2022/01/22 10:02:21;;;;;;;;;;;;;;;5.30;97.88;101882.28;4978998;28;1601;-85
2022/01/22 10:04:48;;;;;;;;;;;;;;;5.33;97.40;101898.16;4968942;28;1970;-88
2022/01/22 10:07:21;;;;;;;;;;;;;;;5.33;98.02;101881.88;4966713;28;1396;-87
2022/01/22 10:09:56;;;;;;;;;;;;;;;5.36;97.57;101883.28;4979391;28;1284;-88
2022/01/22 10:12:22;;;;;;;;;;;;;;;5.42;98.08;101887.91;4977397;28;1029;-88
2022/01/22 10:15:03;;;;;;;;;;;;;;;5.44;97.37;101891.25;4968067;28;1655;-87
2022/01/22 10:17:38;;;;;;;;;;;;;;;5.44;97.56;101874.94;4979510;28;1486;-88
2022/01/22 10:20:03;;;;;;;;;;;;;;;5.41;97.46;101879.97;4979290;28;1446;-87
2022/01/22 10:22:41;;;;;;;;;;;;;;;5.42;97.93;101882.47;4968243;28;1315;-88
2022/01/22 10:25:18;;;;;;;;;;;;;;;5.45;97.26;101886.63;4978763;28;1894;-87
2022/01/22 10:27:48;;;;;;;;;;;;;;;5.46;97.42;101886.41;4972168;28;1569;-87
2022/01/22 10:30:18;;;;;;;;;;;;;;;5.51;97.75;101902.09;4976119;28;1544;-88
2022/01/22 10:32:51;;;;;;;;;;;;;;;5.53;97.62;101894.56;4996230;28;1308;-88
2022/01/22 10:35:23;;;;;;;;;;;;;;;5.53;97.57;101905.44;4978865;28;1328;-87
2022/01/22 10:37:53;;;;;;;;;;;;;;;5.56;97.03;101899.53;4971243;28;1599;-86
2022/01/22 10:40:30;;;;;;;;;;;;;;;5.53;96.51;101914.38;4996222;28;1185;-88
2022/01/22 10:43:17;;;;;;;;;;;;;;;5.51;97.46;101910.22;4994708;28;993;-86
2022/01/22 10:46:06;;;;;;;;;;;;;;;5.48;96.72;101903.34;4977854;28;1902;-87
2022/01/22 10:48:31;;;;;;;;;;;;;;;5.48;96.75;101905.22;4977898;28;1513;-87
2022/01/22 10:51:08;;;;;;;;;;;;;;;5.47;96.70;101909.81;4966926;28;1477;-86
2022/01/22 10:53:53;;;;;;;;;;;;;;;5.43;96.75;101913.16;4958775;28;1198;-88
2022/01/22 10:56:19;;;;;;;;;;;;;;;5.41;96.73;101910.66;4959586;28;1393;-83
2022/01/22 10:59:01;;;;;;;;;;;;;;;5.42;96.92;101908.78;4988782;28;1508;-87
2022/01/22 11:01:28;;;;;;;;;;;;;;;5.39;96.89;101904.59;4959808;28;1193;-87
2022/01/22 11:04:02;;;;;;;;;;;;;;;5.38;96.96;101915.66;4975675;28;1541;-85
2022/01/22 11:06:28;;;;;;;;;;;;;;;5.36;96.68;101915.88;4990407;28;1505;-87
2022/01/22 11:08:54;;;;;;;;;;;;;;;5.38;96.79;101907.53;4978142;28;1222;-86
2022/01/22 11:11:19;;;;;;;;;;;;;;;5.40;97.22;101905.44;4972380;28;1362;-87
2022/01/22 11:13:44;;;;;;;;;;;;;;;5.39;97.31;101912.75;4975405;28;1009;-85
2022/01/22 11:16:10;;;;;;;;;;;;;;;5.42;97.02;101909.63;4978671;28;1526;-86
2022/01/22 11:18:36;;;;;;;;;;;;;;;5.43;96.81;101913.16;4991504;28;1441;-86
2022/01/22 11:21:02;;;;;;;;;;;;;;;5.41;96.90;101912.53;4976774;28;1737;-87
2022/01/22 11:23:27;;;;;;;;;;;;;;;5.40;96.92;101916.31;4977183;28;1072;-86
2022/01/22 11:25:52;;;;;;;;;;;;;;;5.41;96.98;101913.38;4964960;28;1871;-87
2022/01/22 11:28:18;;;;;;;;;;;;;;;5.43;97.45;101914.00;4972124;28;1509;-86
2022/01/22 11:30:45;;;;;;;;;;;;;;;5.46;97.19;101916.28;4977886;28;1619;-88
2022/01/22 11:33:11;;;;;;;;;;;;;;;5.42;96.93;101923.19;4964878;28;1505;-87
2022/01/22 11:35:37;;;;;;;;;;;;;;;5.40;97.12;101928.00;4969664;28;1409;-86
2022/01/22 11:38:07;;;;;;;;;;;;;;;5.38;97.69;101919.22;4990928;28;1268;-88
2022/01/22 11:40:34;;;;;;;;;;;;;;;5.40;97.42;101922.56;4997527;28;1017;-88
2022/01/22 11:43:08;;;;;;;;;;;;;;;5.42;97.01;101925.06;4976630;28;1532;-87
2022/01/22 11:45:37;;;;;;;;;;;;;;;5.42;96.77;101925.06;4996767;28;2021;-88
2022/01/22 11:48:09;;;;;;;;;;;;;;;5.42;96.93;101928.63;4978857;28;1304;-87
2022/01/22 11:50:35;;;;;;;;;;;;;;;5.45;97.26;101917.31;4978304;28;1528;-87
2022/01/22 11:53:19;;;;;;;;;;;;;;;5.47;97.01;101922.53;4967198;28;1597;-88
2022/01/22 11:56:04;;;;;;;;;;;;;;;5.49;96.85;101910.44;4981922;28;760;-87
2022/01/22 11:58:29;;;;;;;;;;;;;;;5.53;96.70;101917.09;4981382;28;1291;-86
2022/01/22 12:00:54;;;;;;;;;;;;;;;5.54;96.58;101920.66;4970072;28;1105;-87
2022/01/22 12:03:20;;;;;;;;;;;;;;;5.61;97.15;101924.22;4996333;28;1508;-88
2022/01/22 12:06:03;;;;;;;;;;;;;;;5.72;95.89;101916.22;4996513;28;1883;-87
2022/01/22 12:08:29;;;;;;;;;;;;;;;5.77;95.79;101925.63;4995285;28;1188;-85
2022/01/22 12:16:17;;;;;;;;;;;;;;;5.76;95.58;101910.38;4996249;28;1449;-85
2022/01/22 12:18:51;;;;;;;;;;;;;;;5.72;96.30;101918.09;4994529;28;1374;-86
2022/01/22 12:23:54;;;;;;;;;;;;;;;5.68;95.25;101912.28;4983157;28;1555;-88
2022/01/22 12:26:36;;;;;;;;;;;;;;;5.69;95.28;101922.09;4966017;28;1894;-88
2022/01/22 12:29:21;;;;;;;;;;;;;;;5.68;95.83;101917.72;4983136;28;1316;-87
2022/01/22 12:32:05;;;;;;;;;;;;;;;5.67;95.75;101917.91;4970607;28;1462;-87
2022/01/22 12:34:50;;;;;;;;;;;;;;;5.72;95.58;101915.38;4999342;28;1564;-88
2022/01/22 12:37:15;;;;;;;;;;;;;;;5.74;95.68;101912.44;4982926;28;1237;-89
2022/01/22 12:39:44;;;;;;;;;;;;;;;5.78;94.71;101922.69;5000943;28;1209;-88
2022/01/22 12:42:12;;;;;;;;;;;;;;;5.84;95.54;101921.00;4980071;28;1580;-87
2022/01/22 12:44:46;;;;;;;;;;;;;;;5.85;95.09;101918.06;4963416;28;1955;-88
2022/01/22 12:47:12;;;;;;;;;;;;;;;5.84;94.29;101916.41;4975166;28;1509;-86
2022/01/22 12:49:38;;;;;;;;;;;;;;;5.87;94.84;101917.84;5000632;28;1588;-88
2022/01/22 12:52:09;;;;;;;;;;;;;;;5.91;94.91;101910.97;4983061;28;1185;-87
2022/01/22 12:54:37;;;;;;;;;;;;;;;5.97;93.94;101913.63;4983654;28;1225;-87
2022/01/22 12:57:06;;;;;;;;;;;;;;;6.03;94.23;101907.38;4969030;28;1501;-87
2022/01/22 13:00:00;;;;;;;;;;;;;;;;;;;;;
2022/01/22 13:03:07;;;;;;;;;;;;;;;;;;;;;
2022/01/22 13:06:11;;;;;;;;;;;;;;;;;;;;;
2022/01/22 13:21:34;;;;;;;;;;;;;;;5.99;93.32;101922.41;5016301;28;1400;-86
2022/01/22 13:29:54;;;;;;;;;;;;;;;5.82;93.58;101925.78;5288643;23;1978;-84
2022/01/22 13:40:44;;;;;;;;;;;;;;;5.72;93.69;101927.06;5005768;28;1641;-84
2022/01/22 13:49:07;;;;;;;;;;;;;;;5.88;93.03;101930.41;4949726;28;1284;-85
2022/01/22 13:51:32;;;;;;;;;;;;;;;5.87;93.27;101924.09;5000917;28;1427;-86
2022/01/22 13:53:59;;;;;;;;;;;;;;;5.88;92.58;101933.13;5000725;28;1572;-86
2022/01/22 13:56:45;;;;;;;;;;;;;;;5.85;93.32;101920.78;5000642;28;1323;-86
2022/01/22 13:59:15;;;;;;;;;;;;;;;5.87;93.19;101926.00;5000541;28;1341;-87
2022/01/22 14:01:50;;;;;;;;;;;;;;;5.88;92.50;101938.56;5014478;28;1519;-88
2022/01/22 14:04:16;;;;;;;;;;;;;;;5.91;92.76;101938.13;4997470;28;1906;-87
2022/01/22 14:06:46;;;;;;;;;;;;;;;5.92;91.91;101934.38;4979242;28;1715;-87
2022/01/22 14:09:16;;;;;;;;;;;;;;;5.95;91.82;101931.22;4996429;28;821;-87
2022/01/22 14:12:00;;;;;;;;;;;;;;;5.93;91.53;101933.31;4978312;28;1346;-87
2022/01/22 14:14:25;;;;;;;;;;;;;;;5.89;91.37;101940.22;4978883;28;1178;-87
2022/01/22 14:17:08;;;;;;;;;;;;;;;5.90;91.22;101940.00;4981155;28;1288;-87
2022/01/22 14:19:33;;;;;;;;;;;;;;;5.89;90.04;101934.78;4997262;28;1267;-88
2022/01/22 14:21:59;;;;;;;;;;;;;;;5.96;90.10;101939.16;4998142;28;1256;-88
2022/01/22 14:24:28;;;;;;;;;;;;;;;5.97;89.80;101920.97;4999131;28;1956;-87
2022/01/22 14:26:53;;;;;;;;;;;;;;;5.89;89.21;101932.06;4991684;28;1320;-87
2022/01/22 14:29:19;;;;;;;;;;;;;;;5.82;89.96;101933.94;4982563;28;1512;-87
2022/01/22 14:31:53;;;;;;;;;;;;;;;5.76;89.66;101945.69;4997672;28;1392;-87
2022/01/22 14:34:42;;;;;;;;;;;;;;;5.72;90.27;101937.09;5001504;28;1332;-87
2022/01/22 14:37:07;;;;;;;;;;;;;;;5.70;89.94;101944.63;4997832;28;1278;-87
2022/01/22 14:43:57;;;;;;;;;;;;;;;5.68;89.83;101925.84;4998623;28;1261;-87
2022/01/22 14:45:07;;;;;;;;;;;;;;;5.69;90.26;101934.84;5016323;28;1898;-87
2022/01/22 14:47:33;;;;;;;;;;;;;;;5.69;89.50;101938.38;4998092;28;1308;-87
2022/01/22 14:50:07;;;;;;;;;;;;;;;5.67;89.61;101935.06;4979923;28;1500;-86
2022/01/22 14:52:33;;;;;;;;;;;;;;;5.64;89.60;101934.63;4978246;28;1283;-87
2022/01/22 14:54:59;;;;;;;;;;;;;;;5.58;89.69;101933.59;4978308;28;1173;-87
2022/01/22 14:57:26;;;;;;;;;;;;;;;5.55;90.11;101944.03;4978225;28;1196;-86
2022/01/22 14:59:51;;;;;;;;;;;;;;;5.51;90.74;101949.09;4978113;28;1300;-87
2022/01/22 15:02:16;;;;;;;;;;;;;;;5.49;90.48;101947.63;4977590;28;1347;-87
2022/01/22 15:04:42;;;;;;;;;;;;;;;5.47;91.43;101949.69;4978446;28;1981;-87
2022/01/22 15:07:09;;;;;;;;;;;;;;;5.43;90.95;101956.63;4978486;28;1234;-86
2022/01/22 15:09:35;;;;;;;;;;;;;;;5.39;91.37;101958.91;4978274;28;1198;-87